createdAt,value
2023-04-25T00:02:43.961Z,12.21
2023-04-25T00:05:57.970Z,12.31
2023-04-25T00:09:12.387Z,12.33
2023-04-25T00:12:24.578Z,12.29
2023-04-25T00:15:37.397Z,12.28
2023-04-25T00:18:53.617Z,12.28
2023-04-25T00:22:07.127Z,12.20
2023-04-25T00:25:19.417Z,12.09
2023-04-25T00:28:31.561Z,11.97
2023-04-25T00:31:44.901Z,12.01
2023-04-25T00:34:57.088Z,11.95
2023-04-25T00:38:09.910Z,11.91
2023-04-25T00:41:22.436Z,11.82
2023-04-25T00:44:36.422Z,11.80
2023-04-25T00:47:49.226Z,11.74
2023-04-25T00:51:04.136Z,11.62
2023-04-25T00:54:16.888Z,11.62
2023-04-25T00:57:29.711Z,11.55
2023-04-25T01:00:42.797Z,11.49
2023-04-25T01:03:56.882Z,11.47
2023-04-25T01:07:09.570Z,11.49
2023-04-25T01:10:22.430Z,11.49
2023-04-25T01:13:34.849Z,11.38
2023-04-25T01:16:47.487Z,11.32
2023-04-25T01:20:00.064Z,11.29
2023-04-25T01:23:12.337Z,11.22
2023-04-25T01:26:25.587Z,11.22
2023-04-25T01:29:38.332Z,11.13
2023-04-25T01:32:51.465Z,11.19
2023-04-25T01:36:03.965Z,11.12
2023-04-25T01:39:16.897Z,11.10
2023-04-25T01:42:30.424Z,11.15
2023-04-25T01:45:44.893Z,11.14
2023-04-25T01:48:57.530Z,11.14
2023-04-25T01:52:10.317Z,11.13
2023-04-25T01:55:22.671Z,11.11
2023-04-25T01:58:36.884Z,11.14
2023-04-25T02:02:08.354Z,11.14
2023-04-25T02:05:21.475Z,11.16
2023-04-25T02:08:33.886Z,11.15
2023-04-25T02:11:45.919Z,11.10
2023-04-25T02:15:12.434Z,11.08
2023-04-25T02:18:29.755Z,11.11
2023-04-25T02:21:41.816Z,11.00
2023-04-25T02:24:54.476Z,11.06
2023-04-25T02:28:07.171Z,11.06
2023-04-25T02:31:19.461Z,11.05
2023-04-25T02:34:31.916Z,11.06
2023-04-25T02:37:47.064Z,11.03
2023-04-25T02:40:59.198Z,11.07
2023-04-25T02:44:12.229Z,11.03
2023-04-25T02:47:24.421Z,10.97
2023-04-25T02:50:37.157Z,11.00
2023-04-25T02:53:49.648Z,10.98
2023-04-25T02:57:17.634Z,11.03
2023-04-25T03:00:30.321Z,10.98
2023-04-25T03:03:42.682Z,10.98
2023-04-25T03:06:54.878Z,10.98
2023-04-25T03:10:07.281Z,10.93
2023-04-25T03:13:20.826Z,10.94
2023-04-25T03:16:33.267Z,10.94
2023-04-25T03:19:45.553Z,10.98
2023-04-25T03:22:57.949Z,10.98
2023-04-25T03:26:10.261Z,10.94
2023-04-25T03:29:24.606Z,10.94
2023-04-25T03:32:37.728Z,10.91
2023-04-25T03:35:51.201Z,10.90
2023-04-25T03:39:03.916Z,10.91
2023-04-25T03:42:16.589Z,10.93
2023-04-25T03:45:30.398Z,10.87
2023-04-25T03:48:42.598Z,10.78
2023-04-25T03:51:56.312Z,10.66
2023-04-25T03:55:10.071Z,10.73
2023-04-25T03:58:24.422Z,10.77
2023-04-25T04:01:36.721Z,10.68
2023-04-25T04:04:50.374Z,10.75
2023-04-25T04:08:03.689Z,10.57
2023-04-25T04:11:17.299Z,10.48
2023-04-25T04:14:29.665Z,10.46
2023-04-25T04:17:42.594Z,10.37
2023-04-25T04:20:55.087Z,10.31
2023-04-25T04:24:07.709Z,10.28
2023-04-25T04:27:22.742Z,10.26
2023-04-25T04:30:43.817Z,10.23
2023-04-25T04:33:56.195Z,10.26
2023-04-25T04:37:08.914Z,10.26
2023-04-25T04:40:22.987Z,10.28
2023-04-25T04:43:40.905Z,10.30
2023-04-25T04:46:54.944Z,10.31
2023-04-25T04:50:10.511Z,10.26
2023-04-25T04:53:41.587Z,10.26
2023-04-25T04:57:01.474Z,10.31
2023-04-25T05:00:24.397Z,10.30
2023-04-25T05:03:55.524Z,10.27
2023-04-25T05:07:10.049Z,10.30
2023-04-25T05:10:27.888Z,10.38
2023-04-25T05:13:43.059Z,10.41
2023-04-25T05:17:00.003Z,10.45
2023-04-25T05:20:23.968Z,10.36
2023-04-25T05:23:53.375Z,10.36
2023-04-25T05:27:10.884Z,10.30
2023-04-25T05:30:43.256Z,10.37
2023-04-25T05:33:57.746Z,10.48
2023-04-25T05:37:11.787Z,10.43
2023-04-25T05:40:26.662Z,10.32
2023-04-25T05:43:48.508Z,10.41
2023-04-25T05:47:11.548Z,10.25
2023-04-25T05:50:37.938Z,10.02
2023-04-25T05:53:52.215Z,9.99
2023-04-25T05:57:05.591Z,9.97
2023-04-25T06:00:23.863Z,9.88
2023-04-25T06:03:36.712Z,9.81
2023-04-25T06:06:49.156Z,9.69
2023-04-25T06:10:01.965Z,9.68
2023-04-25T06:13:14.597Z,9.76
2023-04-25T06:16:27.952Z,9.81
2023-04-25T06:19:41.872Z,9.85
2023-04-25T06:22:54.574Z,9.83
2023-04-25T06:26:08.952Z,9.73
2023-04-25T06:29:23.061Z,9.80
2023-04-25T06:32:35.644Z,9.69
2023-04-25T06:35:48.080Z,9.76
2023-04-25T06:39:02.421Z,9.70
2023-04-25T06:42:14.462Z,9.87
2023-04-25T06:45:28.967Z,10.02
2023-04-25T06:48:41.291Z,10.07
2023-04-25T06:51:53.925Z,10.23
2023-04-25T06:55:07.328Z,10.34
2023-04-25T06:58:21.467Z,10.34
2023-04-25T07:01:42.280Z,10.52
2023-04-25T07:04:58.331Z,10.56
2023-04-25T07:08:10.677Z,10.60
2023-04-25T07:11:24.124Z,10.70
2023-04-25T07:14:36.529Z,10.77
2023-04-25T07:17:49.417Z,10.79
2023-04-25T07:21:02.081Z,10.62
2023-04-25T07:24:15.640Z,10.62
2023-04-25T07:27:29.859Z,10.52
2023-04-25T07:30:43.917Z,10.51
2023-04-25T07:33:56.141Z,10.61
2023-04-25T07:37:08.804Z,10.85
2023-04-25T07:40:23.107Z,10.84
2023-04-25T07:43:37.564Z,10.91
2023-04-25T07:46:51.564Z,10.99
2023-04-25T07:50:04.020Z,11.13
2023-04-25T07:53:17.180Z,11.12
2023-04-25T07:56:41.595Z,11.00
2023-04-25T07:59:45.968Z,10.65
2023-04-25T08:03:00.156Z,11.01
2023-04-25T08:06:13.688Z,11.25
2023-04-25T08:09:28.247Z,11.16
2023-04-25T08:12:41.796Z,11.10
2023-04-25T08:15:56.088Z,11.12
2023-04-25T08:19:08.879Z,11.09
2023-04-25T08:22:21.131Z,11.04
2023-04-25T08:25:35.195Z,10.91
2023-04-25T08:28:48.336Z,10.60
2023-04-25T08:32:00.637Z,10.55
2023-04-25T08:35:17.685Z,10.75
2023-04-25T08:38:29.964Z,10.55
2023-04-25T08:41:43.795Z,10.68
2023-04-25T08:44:58.062Z,10.64
2023-04-25T08:48:17.120Z,10.73
2023-04-25T08:51:32.283Z,10.89
2023-04-25T08:54:49.374Z,11.00
2023-04-25T08:58:02.708Z,11.03
2023-04-25T09:01:15.373Z,10.92
2023-04-25T09:04:29.567Z,10.99
2023-04-25T09:07:42.642Z,10.96
2023-04-25T09:10:55.476Z,10.99
2023-04-25T09:14:29.277Z,11.03
2023-04-25T09:17:52.675Z,11.09
2023-04-25T09:21:14.174Z,11.23
2023-04-25T09:24:40.307Z,11.12
2023-04-25T09:28:02.904Z,11.01
2023-04-25T09:31:20.997Z,10.87
2023-04-25T09:34:34.942Z,10.64
2023-04-25T09:37:49.560Z,10.57
2023-04-25T09:41:20.864Z,10.50
2023-04-25T09:44:33.889Z,10.45
2023-04-25T09:47:48.965Z,10.45
2023-04-25T09:51:15.957Z,10.59
2023-04-25T09:54:30.263Z,10.66
2023-04-25T09:57:45.030Z,10.82
2023-04-25T10:00:57.688Z,10.70
2023-04-25T10:04:16.575Z,10.70
2023-04-25T10:07:35.150Z,11.04
2023-04-25T10:10:49.880Z,11.11
2023-04-25T10:14:03.386Z,11.07
2023-04-25T10:17:17.749Z,11.01
2023-04-25T10:20:30.759Z,11.04
2023-04-25T10:23:44.494Z,11.03
2023-04-25T10:26:57.952Z,10.83
2023-04-25T10:30:19.053Z,11.14
2023-04-25T10:33:40.239Z,11.25
2023-04-25T10:36:58.509Z,11.46
2023-04-25T10:40:20.584Z,11.82
2023-04-25T10:43:57.058Z,12.08
2023-04-25T10:47:14.030Z,12.30
2023-04-25T10:50:26.760Z,12.57
2023-04-25T10:53:42.289Z,12.48
2023-04-25T10:56:56.068Z,12.52
2023-04-25T11:00:17.326Z,12.37
2023-04-25T11:03:33.465Z,12.06
2023-04-25T11:06:58.280Z,11.99
2023-04-25T11:10:13.734Z,12.06
2023-04-25T11:13:28.809Z,11.95
2023-04-25T11:16:41.606Z,11.94
2023-04-25T11:19:57.335Z,11.80
2023-04-25T11:23:09.908Z,11.86
2023-04-25T11:26:22.340Z,12.10
2023-04-25T11:29:36.171Z,12.12
2023-04-25T11:32:51.293Z,12.20
2023-04-25T11:36:04.167Z,12.35
2023-04-25T11:39:16.480Z,12.28
2023-04-25T11:42:29.230Z,12.18
2023-04-25T11:45:43.692Z,12.21
2023-04-25T11:48:56.234Z,12.13
2023-04-25T11:52:08.887Z,12.08
2023-04-25T11:55:24.427Z,11.89
2023-04-25T11:58:37.020Z,11.79
2023-04-25T12:01:55.381Z,11.69
2023-04-25T12:05:30.582Z,11.67
2023-04-25T12:08:28.560Z,11.77
2023-04-25T12:11:48.190Z,11.67
2023-04-25T12:15:01.038Z,11.64
2023-04-25T12:18:13.586Z,11.51
2023-04-25T12:21:27.412Z,11.48
2023-04-25T12:24:41.809Z,11.41
2023-04-25T12:27:54.483Z,11.57
2023-04-25T12:31:08.815Z,11.62
2023-04-25T12:34:21.247Z,11.73
2023-04-25T12:37:33.761Z,11.70
2023-04-25T12:40:46.019Z,11.43
2023-04-25T12:43:58.691Z,11.37
2023-04-25T12:47:11.632Z,11.21
2023-04-25T12:50:24.302Z,11.01
2023-04-25T12:53:38.581Z,10.85
2023-04-25T12:56:51.774Z,10.90
2023-04-25T13:00:05.480Z,10.68
2023-04-25T13:03:17.908Z,10.61
2023-04-25T13:06:31.231Z,10.61
2023-04-25T13:09:43.263Z,10.71
2023-04-25T13:12:55.739Z,10.90
2023-04-25T13:16:08.404Z,10.94
2023-04-25T13:19:20.858Z,10.99
2023-04-25T13:22:33.309Z,10.96
2023-04-25T13:25:45.893Z,10.99
2023-04-25T13:28:58.393Z,10.81
2023-04-25T13:32:11.068Z,10.68
2023-04-25T13:35:24.046Z,10.65
2023-04-25T13:38:36.297Z,10.70
2023-04-25T13:41:48.464Z,10.68
2023-04-25T13:45:00.929Z,10.65
2023-04-25T13:48:13.778Z,10.62
2023-04-25T13:51:27.316Z,10.70
2023-04-25T13:54:39.628Z,10.81
2023-04-25T13:57:51.885Z,10.92
2023-04-25T14:01:04.795Z,11.04
2023-04-25T14:04:17.355Z,11.20
2023-04-25T14:07:30.286Z,11.44
2023-04-25T14:10:43.724Z,11.41
2023-04-25T14:13:56.351Z,11.63
2023-04-25T14:17:08.864Z,11.58
2023-04-25T14:20:22.613Z,11.62
2023-04-25T14:23:34.865Z,11.74
2023-04-25T14:26:47.328Z,11.74
2023-04-25T14:29:59.535Z,11.68
2023-04-25T14:33:11.994Z,11.68
2023-04-25T14:36:24.346Z,11.56
2023-04-25T14:39:36.621Z,11.59
2023-04-25T14:42:49.429Z,11.58
2023-04-25T14:46:03.019Z,11.33
2023-04-25T14:49:15.835Z,11.26
2023-04-25T14:52:28.180Z,11.12
2023-04-25T14:55:41.685Z,11.16
2023-04-25T14:58:57.021Z,11.22
2023-04-25T15:02:09.511Z,11.03
2023-04-25T15:05:22.167Z,10.95
2023-04-25T15:08:34.555Z,11.06
2023-04-25T15:11:49.082Z,11.13
2023-04-25T15:15:03.013Z,11.17
2023-04-25T15:18:15.348Z,11.06
2023-04-25T15:21:27.671Z,10.98
2023-04-25T15:24:39.978Z,10.92
2023-04-25T15:27:54.769Z,10.94
2023-04-25T15:31:07.375Z,11.00
2023-04-25T15:34:19.664Z,11.02
2023-04-25T15:37:31.941Z,11.02
2023-04-25T15:40:44.249Z,11.07
2023-04-25T15:43:56.725Z,11.14
2023-04-25T15:47:10.214Z,11.21
2023-04-25T15:50:23.139Z,11.28
2023-04-25T15:53:35.386Z,11.34
2023-04-25T15:56:47.819Z,11.40
2023-04-25T16:00:00.202Z,11.45
2023-04-25T16:03:12.966Z,11.53
2023-04-25T16:06:26.204Z,11.45
2023-04-25T16:09:38.862Z,11.46
2023-04-25T16:12:52.463Z,11.48
2023-04-25T16:16:04.600Z,11.47
2023-04-25T16:19:16.987Z,11.37
2023-04-25T16:22:29.589Z,11.33
2023-04-25T16:25:43.235Z,11.33
2023-04-25T16:28:55.864Z,11.39
2023-04-25T16:32:08.863Z,11.37
2023-04-25T16:35:21.258Z,11.37
2023-04-25T16:38:33.697Z,11.41
2023-04-25T16:41:46.611Z,11.42
2023-04-25T16:44:59.343Z,11.25
2023-04-25T16:48:12.039Z,11.21
2023-04-25T16:51:24.674Z,11.20
2023-04-25T16:54:37.652Z,11.15
2023-04-25T16:57:50.118Z,11.11
2023-04-25T17:01:02.492Z,11.09
2023-04-25T17:04:15.114Z,11.09
2023-04-25T17:07:28.378Z,11.11
2023-04-25T17:10:42.017Z,11.06
2023-04-25T17:13:54.533Z,11.01
2023-04-25T17:17:07.198Z,10.96
2023-04-25T17:20:20.497Z,10.90
2023-04-25T17:23:33.096Z,10.88
2023-04-25T17:26:48.660Z,10.79
2023-04-25T17:30:00.276Z,10.73
2023-04-25T17:33:13.035Z,10.66
2023-04-25T17:36:25.804Z,10.58
2023-04-25T17:39:38.228Z,10.56
2023-04-25T17:42:50.633Z,10.43
2023-04-25T17:46:03.302Z,10.35
2023-04-25T17:49:16.086Z,10.29
2023-04-25T17:52:28.588Z,10.19
2023-04-25T17:55:42.842Z,10.13
2023-04-25T17:58:55.421Z,10.03
2023-04-25T18:02:08.544Z,9.94
2023-04-25T18:05:21.029Z,9.87
2023-04-25T18:08:33.364Z,9.86
2023-04-25T18:11:45.540Z,9.85
2023-04-25T18:14:57.807Z,9.82
2023-04-25T18:18:12.718Z,9.80
2023-04-25T18:21:25.285Z,9.80
2023-04-25T18:24:37.887Z,9.79
2023-04-25T18:27:50.832Z,9.78
2023-04-25T18:31:03.132Z,9.78
2023-04-25T18:34:16.817Z,9.72
2023-04-25T18:37:29.201Z,9.66
2023-04-25T18:40:50.428Z,9.66
2023-04-25T18:43:56.369Z,9.61
2023-04-25T18:47:08.633Z,9.63
2023-04-25T18:50:23.509Z,9.70
2023-04-25T18:53:35.870Z,9.72
2023-04-25T18:56:48.073Z,9.73
2023-04-25T19:00:02.461Z,9.76
2023-04-25T19:03:15.026Z,9.71
2023-04-25T19:06:29.187Z,9.66
2023-04-25T19:09:41.427Z,9.61
2023-04-25T19:12:53.637Z,9.55
2023-04-25T19:16:07.410Z,9.51
2023-04-25T19:19:20.205Z,9.49
2023-04-25T19:22:32.761Z,9.39
2023-04-25T19:25:45.206Z,9.39
2023-04-25T19:29:12.419Z,9.37
2023-04-25T19:32:25.384Z,9.43
2023-04-25T19:35:37.957Z,9.51
2023-04-25T19:38:50.417Z,9.56
2023-04-25T19:42:04.864Z,9.61
2023-04-25T19:45:18.926Z,9.63
2023-04-25T19:48:32.151Z,9.61
2023-04-25T19:51:46.513Z,9.55
2023-04-25T19:55:01.105Z,9.53
2023-04-25T19:58:14.769Z,9.50
2023-04-25T20:01:28.719Z,9.48
2023-04-25T20:04:41.980Z,9.40
2023-04-25T20:07:54.358Z,9.29
2023-04-25T20:11:07.183Z,9.15
2023-04-25T20:14:22.352Z,9.07
2023-04-25T20:17:35.061Z,9.04
2023-04-25T20:20:47.936Z,9.00
2023-04-25T20:24:01.883Z,9.01
2023-04-25T20:27:14.345Z,9.04
2023-04-25T20:30:26.983Z,9.07
2023-04-25T20:33:43.799Z,9.04
2023-04-25T20:36:58.086Z,9.00
2023-04-25T20:40:14.172Z,8.97
2023-04-25T20:43:26.291Z,8.98
2023-04-25T20:46:39.934Z,8.97
2023-04-25T20:49:52.661Z,8.96
2023-04-25T20:53:05.882Z,8.94
2023-04-25T20:56:17.988Z,8.93
2023-04-25T20:59:31.123Z,8.92
2023-04-25T21:02:43.538Z,8.93
2023-04-25T21:05:56.760Z,8.94
2023-04-25T21:09:09.941Z,8.97
2023-04-25T21:12:22.090Z,8.97
2023-04-25T21:15:34.767Z,8.93
2023-04-25T21:18:47.119Z,8.93
2023-04-25T21:22:00.409Z,8.93
2023-04-25T21:25:16.607Z,8.90
2023-04-25T21:28:29.075Z,8.90
2023-04-25T21:31:43.852Z,8.91
2023-04-25T21:34:55.938Z,8.91
2023-04-25T21:38:08.150Z,8.87
2023-04-25T21:41:20.349Z,8.87
2023-04-25T21:44:33.372Z,8.87
2023-04-25T21:47:46.897Z,8.83
2023-04-25T21:50:59.384Z,8.86
2023-04-25T21:54:12.062Z,8.87
2023-04-25T21:57:24.455Z,8.86
2023-04-25T22:00:36.755Z,8.85
2023-04-25T22:03:49.109Z,8.85
2023-04-25T22:07:01.642Z,8.84
2023-04-25T22:10:16.720Z,8.84
2023-04-25T22:13:29.394Z,8.85
2023-04-25T22:16:42.111Z,8.85
2023-04-25T22:19:54.270Z,8.86
2023-04-25T22:23:06.612Z,8.88
2023-04-25T22:26:18.728Z,8.75
2023-04-25T22:29:31.719Z,8.84
2023-04-25T22:32:44.374Z,8.83
2023-04-25T22:35:56.758Z,8.81
2023-04-25T22:39:08.990Z,8.80
2023-04-25T22:42:21.286Z,8.83
2023-04-25T22:45:33.505Z,8.82
2023-04-25T22:48:46.010Z,8.84
2023-04-25T22:51:58.392Z,8.81
2023-04-25T22:55:13.808Z,8.80
2023-04-25T22:58:25.891Z,8.80
2023-04-25T23:01:38.353Z,8.78
2023-04-25T23:04:50.621Z,8.71
2023-04-25T23:08:02.924Z,8.70
2023-04-25T23:11:15.880Z,8.68
2023-04-25T23:14:28.984Z,8.67
2023-04-25T23:17:41.339Z,8.65
2023-04-25T23:20:53.696Z,8.62
2023-04-25T23:24:06.186Z,8.56
2023-04-25T23:27:18.518Z,8.56
2023-04-25T23:30:30.697Z,8.60
2023-04-25T23:33:43.166Z,8.54
2023-04-25T23:36:55.864Z,8.56
2023-04-25T23:40:10.419Z,8.53
2023-04-25T23:43:22.790Z,8.56
2023-04-25T23:46:35.373Z,8.49
2023-04-25T23:49:47.886Z,8.49
2023-04-25T23:53:00.278Z,8.46
2023-04-25T23:56:13.510Z,8.46
2023-04-25T23:59:25.521Z,8.45
